Time;durP1;ratioP1;P1;durP2;ratioP2;P2;SDS_P1;SDS_P2;PMS_P1;PMS_P2;Temp;Humidity;BMP_temperature;BMP_pressure;BME280_temperature;BME280_humidity;BME280_pressure;Samples;Min_cycle;Max_cycle;Signal;HPM_P1;HPM_P2
2023/06/01 00:00:29;;;;;;;0.22;0.22;;;;;;;14.82;63.72;102536.59;5070747;28;20028;-79
2023/06/01 00:02:55;;;;;;;0.28;0.28;;;;;;;14.74;64.39;102531.31;5064966;28;20036;-78
2023/06/01 00:05:21;;;;;;;0.57;0.57;;;;;;;14.77;64.13;102539.31;5068564;28;20012;-79
2023/06/01 00:07:47;;;;;;;0.10;0.10;;;;;;;14.79;64.50;102534.84;5069138;28;20033;-79
2023/06/01 00:10:13;;;;;;;0.10;0.10;;;;;;;14.77;65.20;102527.78;5070092;28;20025;-79
2023/06/01 00:12:40;;;;;;;0.05;0.05;;;;;;;14.83;64.61;102533.91;5070143;28;20029;-80
2023/06/01 00:15:07;;;;;;;0.10;0.10;;;;;;;14.85;64.77;102529.47;5069155;28;20052;-80
2023/06/01 00:17:33;;;;;;;0.10;0.10;;;;;;;14.93;64.14;102533.78;5066641;28;20036;-77
2023/06/01 00:20:00;;;;;;;0.08;0.08;;;;;;;14.92;64.52;102519.59;5069130;28;20036;-78
2023/06/01 00:22:29;;;;;;;0.00;0.00;;;;;;;14.88;64.35;102532.06;5067795;28;20049;-79
2023/06/01 00:24:55;;;;;;;0.20;0.20;;;;;;;14.91;64.03;102527.63;5071589;28;20025;-79
2023/06/01 00:27:21;;;;;;;0.10;0.10;;;;;;;14.92;64.34;102527.59;5071246;28;20059;-79
2023/06/01 00:29:48;;;;;;;0.75;0.75;;;;;;;14.96;64.16;102523.09;5070613;28;20028;-80
2023/06/01 00:32:14;;;;;;;0.00;0.00;;;;;;;15.04;64.06;102526.53;5070569;28;20506;-80
2023/06/01 00:34:40;;;;;;;0.30;0.30;;;;;;;15.03;63.70;102532.81;5069869;28;20028;-79
2023/06/01 00:37:06;;;;;;;1.38;0.65;;;;;;;15.06;63.90;102521.22;5070899;28;20036;-77
2023/06/01 00:39:32;;;;;;;0.20;0.20;;;;;;;15.12;63.74;102524.69;5069786;28;20111;-78
2023/06/01 00:41:58;;;;;;;0.05;0.05;;;;;;;15.07;63.72;102523.84;5071436;28;20017;-79
2023/06/01 00:44:24;;;;;;;0.30;0.30;;;;;;;15.13;63.43;102523.78;5075015;28;20017;-78
2023/06/01 00:46:51;;;;;;;0.10;0.10;;;;;;;15.13;63.45;102515.78;5073863;28;20029;-77
2023/06/01 00:49:18;;;;;;;0.05;0.05;;;;;;;15.14;63.31;102520.22;5073774;28;20025;-78
2023/06/01 00:51:44;;;;;;;0.10;0.10;;;;;;;15.11;63.41;102520.25;5069367;28;20037;-80
2023/06/01 00:54:11;;;;;;;0.10;0.10;;;;;;;15.11;63.08;102514.91;5072523;28;20051;-79
2023/06/01 00:56:38;;;;;;;0.32;0.32;;;;;;;15.08;63.05;102520.28;5066130;28;20052;-76
2023/06/01 00:59:04;;;;;;;0.15;0.15;;;;;;;15.07;63.08;102529.19;5069381;28;20032;-80
2023/06/01 01:01:31;;;;;;;0.10;0.10;;;;;;;15.04;63.11;102522.13;5070268;28;20021;-79
2023/06/01 01:03:57;;;;;;;0.10;0.10;;;;;;;15.02;63.30;102521.22;5070283;28;20100;-77
2023/06/01 01:09:41;;;;;;;0.20;0.20;;;;;;;15.10;63.18;102521.13;5116724;27;20385;-81
2023/06/01 01:12:17;;;;;;;0.10;0.10;;;;;;;15.01;63.01;102522.13;5102298;28;20028;-80
2023/06/01 01:14:52;;;;;;;0.10;0.10;;;;;;;15.03;62.78;102516.81;5103137;28;20030;-79
2023/06/01 01:17:32;;;;;;;0.10;0.10;;;;;;;14.97;62.97;102523.06;5103658;28;20401;-80
2023/06/01 01:20:08;;;;;;;0.10;0.10;;;;;;;14.91;63.54;102512.47;5098679;28;20032;-81
2023/06/01 01:23:14;;;;;;;0.05;0.05;;;;;;;15.00;63.13;102511.47;5102705;28;20473;-80
2023/06/01 01:26:21;;;;;;;0.00;0.00;;;;;;;14.95;62.99;102511.53;5100509;28;20052;-80
2023/06/01 01:28:52;;;;;;;0.10;0.10;;;;;;;14.93;63.12;102518.69;5099232;28;20180;-81
2023/06/01 01:31:22;;;;;;;2.05;1.55;;;;;;;14.94;63.14;102511.56;5105520;28;20501;-81
2023/06/01 01:33:52;;;;;;;0.00;0.00;;;;;;;14.98;62.90;102518.66;5100944;28;20023;-81
2023/06/01 01:36:19;;;;;;;1.48;1.25;;;;;;;14.97;63.46;102516.88;5106524;28;20028;-81
2023/06/01 01:38:46;;;;;;;0.10;0.10;;;;;;;14.99;63.37;102521.28;5104988;28;20020;-79
2023/06/01 01:41:12;;;;;;;0.93;0.45;;;;;;;15.02;62.95;102520.38;5106223;28;20032;-81
2023/06/01 01:43:39;;;;;;;0.10;0.10;;;;;;;14.99;63.32;102517.72;5096293;28;20051;-80
2023/06/01 01:46:27;;;;;;;0.10;0.10;;;;;;;15.11;63.19;102514.91;5104399;28;20036;-80
2023/06/01 01:51:51;;;;;;;0.50;0.50;;;;;;;15.16;62.66;102522.88;5131114;27;20415;-77
2023/06/01 01:54:20;;;;;;;0.10;0.10;;;;;;;15.16;62.65;102518.41;5121963;28;20032;-78
2023/06/01 01:56:49;;;;;;;0.20;0.20;;;;;;;15.15;62.55;102519.31;5104759;28;20028;-78
2023/06/01 01:59:17;;;;;;;0.00;0.00;;;;;;;15.13;62.47;102523.78;5095247;28;20032;-80
2023/06/01 02:01:44;;;;;;;0.00;0.00;;;;;;;15.14;62.46;102522.88;5091489;28;20044;-79
2023/06/01 02:04:13;;;;;;;0.77;0.77;;;;;;;15.16;62.36;102526.41;5093897;28;20021;-78
2023/06/01 02:06:39;;;;;;;0.10;0.10;;;;;;;15.11;62.57;102522.91;5092297;28;20031;-80
2023/06/01 02:09:07;;;;;;;0.10;0.10;;;;;;;15.09;62.63;102516.72;5096013;28;20036;-79
2023/06/01 02:11:34;;;;;;;0.20;0.20;;;;;;;14.96;62.98;102515.97;5092148;28;20112;-79
2023/06/01 02:14:01;;;;;;;0.10;0.10;;;;;;;14.98;62.84;102519.50;5094777;28;20036;-79
2023/06/01 02:16:27;;;;;;;0.10;0.10;;;;;;;14.97;62.43;102512.41;5092014;28;20056;-79
2023/06/01 02:18:53;;;;;;;0.45;0.45;;;;;;;14.95;62.46;102510.66;5095953;28;20032;-78
2023/06/01 02:21:20;;;;;;;0.00;0.00;;;;;;;14.82;62.67;102513.47;5085729;28;20028;-80
2023/06/01 02:23:47;;;;;;;0.10;0.10;;;;;;;14.87;62.46;102511.63;5092151;28;20029;-79
2023/06/01 02:26:13;;;;;;;18.90;1.00;;;;;;;14.83;63.05;102501.03;5092728;28;20059;-80
2023/06/01 02:28:40;;;;;;;0.10;0.10;;;;;;;14.92;62.70;102502.69;5085799;28;20039;-80
2023/06/01 02:31:07;;;;;;;0.10;0.10;;;;;;;14.89;62.57;102503.59;5086143;28;20017;-77
2023/06/01 02:33:33;;;;;;;0.20;0.20;;;;;;;14.86;62.51;102501.84;5081752;28;20059;-80
2023/06/01 02:36:00;;;;;;;0.10;0.10;;;;;;;14.84;62.90;102502.75;5082304;28;20055;-78
2023/06/01 02:38:26;;;;;;;0.90;0.90;;;;;;;14.80;62.49;102496.56;5083274;28;20107;-78
2023/06/01 02:40:53;;;;;;;0.20;0.20;;;;;;;14.75;62.62;102500.22;5086401;28;20016;-77
2023/06/01 02:43:19;;;;;;;0.30;0.30;;;;;;;14.73;62.91;102500.22;5086600;28;20022;-77
2023/06/01 02:45:45;;;;;;;0.63;0.63;;;;;;;14.79;62.91;102501.94;5085150;28;20020;-78
2023/06/01 02:48:12;;;;;;;0.10;0.10;;;;;;;14.78;62.50;102498.41;5084416;28;20021;-80
2023/06/01 02:50:39;;;;;;;0.00;0.00;;;;;;;14.79;62.38;102507.28;5084521;28;20028;-77
2023/06/01 02:53:05;;;;;;;0.10;0.10;;;;;;;14.71;62.59;102504.69;5087126;28;20076;-79
2023/06/01 02:55:31;;;;;;;0.98;0.38;;;;;;;14.77;62.28;102499.28;5086450;28;20021;-78
2023/06/01 02:57:57;;;;;;;0.00;0.00;;;;;;;14.72;62.44;102495.78;5079147;28;20060;-78
2023/06/01 03:00:23;;;;;;;0.13;0.13;;;;;;;14.74;62.40;102504.66;5088622;28;20097;-77
2023/06/01 03:02:50;;;;;;;0.10;0.10;;;;;;;14.75;62.66;102500.22;5077755;28;20029;-79
2023/06/01 03:05:16;;;;;;;0.50;0.50;;;;;;;14.68;62.77;102499.41;5076650;28;20048;-79
2023/06/01 03:07:44;;;;;;;0.10;0.10;;;;;;;14.70;62.72;102497.59;5080243;28;20032;-79
2023/06/01 03:10:13;;;;;;;0.20;0.20;;;;;;;14.73;63.02;102492.22;5077696;28;20089;-78
2023/06/01 03:12:40;;;;;;;0.03;0.03;;;;;;;14.77;63.32;102503.75;5074230;28;20024;-78
2023/06/01 03:15:06;;;;;;;0.30;0.30;;;;;;;14.80;63.19;102496.56;5082439;28;20026;-77
2023/06/01 03:17:33;;;;;;;0.10;0.10;;;;;;;14.83;63.16;102504.56;5076536;28;20032;-78
2023/06/01 03:20:00;;;;;;;0.52;0.52;;;;;;;14.85;62.89;102493.88;5076035;28;20021;-77
2023/06/01 03:22:26;;;;;;;0.10;0.10;;;;;;;14.79;62.94;102492.16;5075166;28;20163;-78
2023/06/01 03:24:54;;;;;;;0.10;0.10;;;;;;;14.81;62.32;102494.81;5080983;28;20092;-78
2023/06/01 03:27:20;;;;;;;0.00;0.00;;;;;;;14.75;62.49;102494.88;5079914;28;20028;-78
2023/06/01 03:29:47;;;;;;;0.10;0.10;;;;;;;14.75;62.71;102498.41;5079448;28;20031;-78
2023/06/01 03:32:14;;;;;;;0.10;0.10;;;;;;;14.70;62.77;102497.59;5076040;28;20056;-79
2023/06/01 03:34:41;;;;;;;0.32;0.32;;;;;;;14.76;62.50;102505.53;5082019;28;20033;-77
2023/06/01 03:37:08;;;;;;;0.10;0.10;;;;;;;14.79;62.60;102496.59;5083445;28;20295;-75
2023/06/01 03:39:35;;;;;;;0.10;0.10;;;;;;;14.78;62.43;102506.41;5087766;28;20036;-76
2023/06/01 03:42:02;;;;;;;0.10;0.10;;;;;;;14.68;62.77;102508.28;5082811;28;20021;-79
2023/06/01 03:44:28;;;;;;;0.68;0.68;;;;;;;14.71;62.21;102510.03;5080994;28;20508;-78
2023/06/01 03:46:54;;;;;;;0.03;0.03;;;;;;;14.68;62.75;102500.28;5075946;28;20092;-76
2023/06/01 03:49:20;;;;;;;0.03;0.03;;;;;;;14.67;62.31;102510.97;5071712;28;20068;-78
2023/06/01 03:51:46;;;;;;;0.35;0.35;;;;;;;14.60;62.54;102506.56;5077133;28;20084;-79
2023/06/01 03:54:13;;;;;;;0.10;0.10;;;;;;;14.62;62.37;102502.97;5079507;28;20047;-79
2023/06/01 03:56:40;;;;;;;0.10;0.10;;;;;;;14.61;62.29;102508.34;5082298;28;20043;-78
2023/06/01 03:59:07;;;;;;;0.35;0.35;;;;;;;14.48;63.00;102503.13;5083871;28;20028;-76
2023/06/01 04:01:33;;;;;;;0.20;0.20;;;;;;;14.59;62.37;102500.31;5082202;28;20036;-78
2023/06/01 04:04:00;;;;;;;0.10;0.10;;;;;;;14.64;62.60;102502.94;5075575;28;20111;-76
2023/06/01 04:06:29;;;;;;;0.17;0.17;;;;;;;14.64;62.32;102502.94;5077789;28;20029;-78
2023/06/01 04:08:58;;;;;;;0.05;0.05;;;;;;;14.62;62.43;102510.09;5084416;28;20024;-76
2023/06/01 04:11:24;;;;;;;0.57;0.57;;;;;;;14.57;62.18;102505.69;5081759;28;20025;-77
2023/06/01 04:13:50;;;;;;;0.57;0.57;;;;;;;14.57;62.25;102512.81;5076474;28;20024;-76
2023/06/01 04:16:18;;;;;;;0.10;0.10;;;;;;;14.54;62.63;102512.81;5076347;28;20025;-77
2023/06/01 04:18:44;;;;;;;0.10;0.10;;;;;;;14.56;62.68;102508.38;5076066;28;20025;-77
2023/06/01 04:21:10;;;;;;;0.10;0.10;;;;;;;14.62;62.30;102505.63;5078452;28;20042;-77
2023/06/01 04:23:37;;;;;;;0.85;0.85;;;;;;;14.66;62.15;102506.53;5075576;28;20032;-77
2023/06/01 04:26:04;;;;;;;0.10;0.10;;;;;;;14.66;62.28;102506.53;5074904;28;20028;-79
2023/06/01 04:28:32;;;;;;;0.45;0.45;;;;;;;14.75;61.80;102501.09;5077797;28;20021;-78
2023/06/01 04:30:59;;;;;;;0.10;0.10;;;;;;;14.73;62.22;102500.22;5075526;28;20032;-76
2023/06/01 04:33:25;;;;;;;0.25;0.25;;;;;;;14.78;61.94;102501.06;5077826;28;20029;-77
2023/06/01 04:35:53;;;;;;;0.10;0.10;;;;;;;14.81;61.93;102503.69;5081525;28;20567;-76
2023/06/01 04:38:21;;;;;;;0.10;0.10;;;;;;;14.87;61.92;102506.28;5074480;28;20025;-79
2023/06/01 04:40:47;;;;;;;0.00;0.00;;;;;;;14.94;61.49;102507.13;5079713;28;20021;-77
2023/06/01 04:43:18;;;;;;;0.10;0.10;;;;;;;14.95;61.67;102508.84;5075974;28;20516;-78
2023/06/01 04:45:45;;;;;;;0.40;0.40;;;;;;;14.98;61.56;102507.97;5080553;28;20013;-77
2023/06/01 04:48:11;;;;;;;0.10;0.10;;;;;;;14.97;61.59;102506.19;5075118;28;20020;-77
2023/06/01 04:50:37;;;;;;;0.10;0.10;;;;;;;14.97;61.46;102506.19;5079048;28;20037;-77
2023/06/01 04:53:04;;;;;;;0.10;0.10;;;;;;;15.01;61.53;102510.59;5084984;28;20401;-78
2023/06/01 04:55:30;;;;;;;0.10;0.10;;;;;;;14.97;61.35;102507.06;5080324;28;20004;-77
2023/06/01 04:57:58;;;;;;;0.10;0.10;;;;;;;15.05;61.20;102514.97;5074337;28;20044;-78
2023/06/01 05:00:24;;;;;;;0.20;0.20;;;;;;;15.04;61.19;102518.53;5074383;28;20040;-79
2023/06/01 05:02:50;;;;;;;2.08;0.47;;;;;;;15.15;61.28;102515.75;5070659;28;20035;-77
2023/06/01 05:05:17;;;;;;;0.10;0.10;;;;;;;15.19;60.82;102513.03;5071626;28;20021;-79
2023/06/01 05:07:43;;;;;;;0.40;0.40;;;;;;;15.23;60.99;102512.97;5080412;28;20066;-76
2023/06/01 05:10:11;;;;;;;0.57;0.57;;;;;;;15.29;60.96;102512.91;5078822;28;20021;-77
2023/06/01 05:12:38;;;;;;;0.08;0.08;;;;;;;15.33;60.73;102514.66;5076678;28;20024;-76
2023/06/01 05:15:06;;;;;;;0.20;0.20;;;;;;;15.29;60.56;102512.91;5074275;28;20033;-78
2023/06/01 05:17:33;;;;;;;0.10;0.10;;;;;;;15.27;60.65;102512.94;5075504;28;20021;-78
2023/06/01 05:19:59;;;;;;;0.10;0.10;;;;;;;15.25;60.40;102524.53;5076701;28;20100;-77
2023/06/01 05:22:25;;;;;;;0.30;0.30;;;;;;;15.32;60.37;102523.56;5073893;28;20051;-77
2023/06/01 05:24:52;;;;;;;0.65;0.65;;;;;;;15.31;60.43;102517.31;5073047;28;20040;-78
2023/06/01 05:27:18;;;;;;;0.90;0.75;;;;;;;15.38;60.67;102507.44;5070451;28;20083;-79
2023/06/01 05:29:44;;;;;;;0.20;0.20;;;;;;;15.48;60.52;102511.75;5072437;28;20024;-78
2023/06/01 05:32:10;;;;;;;0.20;0.20;;;;;;;15.48;60.14;102509.09;5078355;28;20036;-78
2023/06/01 05:34:37;;;;;;;0.20;0.20;;;;;;;15.56;60.58;102513.44;5075058;28;20044;-78
2023/06/01 05:37:03;;;;;;;0.10;0.10;;;;;;;15.61;59.92;102508.91;5080035;28;20043;-80
2023/06/01 05:39:30;;;;;;;0.20;0.20;;;;;;;15.66;59.78;102512.41;5077071;28;20028;-77
2023/06/01 05:41:57;;;;;;;0.15;0.15;;;;;;;15.71;59.87;102518.56;5083427;28;20024;-77
2023/06/01 05:44:24;;;;;;;0.20;0.20;;;;;;;15.78;59.65;102519.38;5081794;28;20040;-77
2023/06/01 05:46:52;;;;;;;0.05;0.05;;;;;;;15.80;59.67;102509.50;5077350;28;20025;-77
2023/06/01 05:49:19;;;;;;;0.10;0.10;;;;;;;15.85;59.44;102513.94;5069965;28;20032;-77
2023/06/01 05:51:46;;;;;;;0.17;0.17;;;;;;;15.82;59.29;102513.97;5074269;28;20040;-77
2023/06/01 05:54:12;;;;;;;0.10;0.10;;;;;;;15.87;59.12;102518.38;5067482;28;20029;-78
2023/06/01 05:56:40;;;;;;;0.10;0.10;;;;;;;15.94;59.20;102517.38;5071683;28;20024;-76
2023/06/01 05:59:06;;;;;;;0.25;0.25;;;;;;;15.98;58.64;102517.28;5065783;28;20038;-78
2023/06/01 06:01:32;;;;;;;0.00;0.00;;;;;;;16.08;59.12;102519.81;5058265;28;20029;-79
2023/06/01 06:03:59;;;;;;;0.32;0.32;;;;;;;16.09;58.40;102517.13;5060844;28;20588;-79
2023/06/01 06:06:26;;;;;;;0.17;0.17;;;;;;;16.15;58.41;102511.66;5060036;28;20033;-78
2023/06/01 06:08:52;;;;;;;0.80;0.73;;;;;;;16.16;58.50;102512.53;5051634;28;20029;-75
2023/06/01 06:11:19;;;;;;;0.10;0.10;;;;;;;16.21;58.61;102518.69;5050420;28;20025;-77
2023/06/01 06:13:47;;;;;;;0.17;0.17;;;;;;;16.18;58.33;102519.63;5058922;28;20025;-76
2023/06/01 06:16:13;;;;;;;0.08;0.08;;;;;;;16.18;58.04;102510.72;5064085;28;20033;-78
2023/06/01 06:18:39;;;;;;;0.10;0.10;;;;;;;16.22;57.95;102511.56;5065229;28;20132;-76
2023/06/01 06:21:06;;;;;;;0.00;0.00;;;;;;;16.15;57.80;102518.81;5075378;28;20041;-75
2023/06/01 06:23:32;;;;;;;0.25;0.25;;;;;;;16.14;57.33;102509.03;5066567;28;20016;-78
2023/06/01 06:25:58;;;;;;;0.10;0.10;;;;;;;16.10;56.99;102524.22;5067741;28;20044;-77
2023/06/01 06:28:26;;;;;;;0.10;0.10;;;;;;;16.18;57.43;102510.72;5069419;28;20079;-75
2023/06/01 06:30:52;;;;;;;0.10;0.10;;;;;;;16.23;57.65;102511.53;5080816;28;20056;-77
2023/06/01 06:33:18;;;;;;;0.10;0.10;;;;;;;16.27;57.12;102509.69;5067886;28;20078;-76
2023/06/01 06:35:44;;;;;;;0.10;0.10;;;;;;;16.30;56.87;102517.69;5071546;28;20096;-77
2023/06/01 06:38:13;;;;;;;0.10;0.10;;;;;;;16.26;56.91;102513.28;5079092;28;20039;-78
2023/06/01 06:40:39;;;;;;;0.40;0.40;;;;;;;16.35;57.24;102518.47;5075847;28;20024;-76
2023/06/01 06:43:05;;;;;;;14.75;1.20;;;;;;;16.36;57.50;102519.34;5068642;28;20037;-77
2023/06/01 06:45:31;;;;;;;0.10;0.10;;;;;;;16.46;57.06;102519.16;5072462;28;20028;-77
2023/06/01 06:47:57;;;;;;;1.00;1.00;;;;;;;16.47;56.69;102515.59;5069854;28;20033;-76
2023/06/01 06:50:23;;;;;;;0.20;0.20;;;;;;;16.52;57.24;102511.94;5092346;28;20061;-74
2023/06/01 06:52:50;;;;;;;2.67;1.88;;;;;;;16.61;56.72;102517.09;5085405;28;20054;-75
2023/06/01 06:55:16;;;;;;;0.45;0.45;;;;;;;16.67;56.55;102516.97;5081224;28;20021;-78
2023/06/01 06:57:42;;;;;;;0.20;0.20;;;;;;;16.79;56.93;102519.44;5075252;28;20451;-78
2023/06/01 07:00:08;;;;;;;0.10;0.10;;;;;;;16.90;56.47;102526.38;5073209;28;20051;-78
2023/06/01 07:02:35;;;;;;;0.10;0.10;;;;;;;16.90;56.91;102529.06;5059010;28;20028;-80
2023/06/01 07:05:01;;;;;;;0.30;0.30;;;;;;;16.97;56.46;102530.72;5076050;28;20075;-78
2023/06/01 07:07:28;;;;;;;0.20;0.20;;;;;;;16.99;56.02;102531.59;5078403;28;20097;-77
2023/06/01 07:09:54;;;;;;;0.20;0.20;;;;;;;17.08;56.04;102528.72;5073766;28;20028;-77
2023/06/01 07:12:20;;;;;;;0.35;0.35;;;;;;;17.08;55.69;102531.38;5061614;28;20574;-77
2023/06/01 07:14:46;;;;;;;0.65;0.65;;;;;;;17.13;56.39;102529.53;5067227;28;20025;-77
2023/06/01 07:17:12;;;;;;;0.10;0.10;;;;;;;17.12;54.68;102533.09;5061191;28;20037;-77
2023/06/01 07:19:38;;;;;;;0.20;0.20;;;;;;;17.19;54.86;102527.63;5077244;28;20033;-77
2023/06/01 07:22:05;;;;;;;0.10;0.10;;;;;;;17.23;55.26;102529.31;5076606;28;20045;-78
2023/06/01 07:24:31;;;;;;;0.10;0.10;;;;;;;17.32;55.03;102529.13;5086418;28;20024;-77
2023/06/01 07:26:57;;;;;;;0.10;0.10;;;;;;;17.40;54.87;102531.66;5085299;28;20123;-78
2023/06/01 07:29:23;;;;;;;1.23;0.52;;;;;;;17.43;54.96;102535.13;5085096;28;20024;-75
2023/06/01 07:31:52;;;;;;;0.55;0.55;;;;;;;17.50;54.36;102525.16;5072943;28;20029;-78
2023/06/01 07:34:18;;;;;;;0.10;0.10;;;;;;;17.50;53.56;102529.66;5076607;28;20406;-78
2023/06/01 07:36:46;;;;;;;2.08;0.70;;;;;;;17.58;54.10;102533.03;5077331;28;20034;-77
2023/06/01 07:39:13;;;;;;;0.13;0.13;;;;;;;17.63;53.84;102531.13;5076908;28;20028;-78
2023/06/01 07:41:40;;;;;;;0.10;0.10;;;;;;;17.70;53.97;102535.41;5076956;28;20081;-76
2023/06/01 07:44:07;;;;;;;0.10;0.10;;;;;;;17.75;53.72;102527.28;5079295;28;20021;-75
2023/06/01 07:46:33;;;;;;;0.40;0.40;;;;;;;17.78;53.10;102535.25;5082034;28;20525;-77
2023/06/01 07:48:59;;;;;;;0.10;0.10;;;;;;;17.81;53.13;102535.19;5083234;28;20100;-77
2023/06/01 07:51:25;;;;;;;0.73;0.73;;;;;;;17.78;52.78;102533.47;5074938;28;20051;-75
2023/06/01 07:53:52;;;;;;;1.38;1.27;;;;;;;17.75;52.96;102528.16;5077429;28;20052;-76
2023/06/01 07:56:19;;;;;;;0.20;0.20;;;;;;;17.81;52.67;102531.59;5074594;28;20101;-75
2023/06/01 07:58:45;;;;;;;0.30;0.30;;;;;;;17.73;52.79;102535.38;5063429;28;20031;-74
2023/06/01 08:01:11;;;;;;;0.35;0.35;;;;;;;17.82;52.99;102528.00;5060997;28;20032;-78
2023/06/01 08:03:41;;;;;;;0.70;0.70;;;;;;;17.90;52.48;102526.03;5055562;28;20025;-79
2023/06/01 08:06:07;;;;;;;0.10;0.10;;;;;;;17.91;51.92;102517.94;5066717;28;20029;-78
2023/06/01 08:08:33;;;;;;;1.15;0.65;;;;;;;18.05;52.63;102520.31;5070617;28;20078;-78
2023/06/01 08:11:00;;;;;;;0.10;0.10;;;;;;;17.99;52.16;102515.09;5067799;28;20036;-79
2023/06/01 08:13:26;;;;;;;0.85;0.85;;;;;;;18.11;54.16;102514.81;5070016;28;20076;-77
2023/06/01 08:15:52;;;;;;;0.28;0.28;;;;;;;18.34;52.35;102515.16;5074435;28;20029;-77
2023/06/01 08:18:19;;;;;;;0.13;0.13;;;;;;;18.57;52.08;102511.88;5074096;28;20029;-79
2023/06/01 08:20:45;;;;;;;0.17;0.17;;;;;;;18.80;51.60;102513.03;5075105;28;20036;-76
2023/06/01 08:23:12;;;;;;;0.10;0.10;;;;;;;18.80;51.41;102518.41;5069276;28;20020;-79
2023/06/01 08:25:38;;;;;;;0.20;0.20;;;;;;;18.79;50.49;102512.16;5074815;28;20033;-78
2023/06/01 08:28:04;;;;;;;1.02;0.95;;;;;;;18.86;50.97;102502.09;5077182;28;20028;-78
2023/06/01 08:30:33;;;;;;;0.90;0.73;;;;;;;18.73;49.81;102506.97;5071822;28;20044;-79
2023/06/01 08:33:01;;;;;;;0.10;0.10;;;;;;;18.89;50.73;102512.75;5076751;28;20104;-77
2023/06/01 08:35:27;;;;;;;0.30;0.30;;;;;;;18.89;50.17;102510.97;5077162;28;20029;-78
2023/06/01 08:37:53;;;;;;;0.20;0.20;;;;;;;18.97;50.73;102502.72;5072727;28;20739;-79
2023/06/01 08:40:20;;;;;;;0.35;0.35;;;;;;;19.06;50.40;102505.13;5065059;28;20092;-79
2023/06/01 08:45:23;;;;;;;0.10;0.10;;;;;;;19.14;50.36;102506.69;5116242;27;20132;-82
2023/06/01 08:47:53;;;;;;;0.10;0.10;;;;;;;19.14;50.06;102514.75;5110424;28;20028;-81
2023/06/01 08:50:21;;;;;;;0.65;0.65;;;;;;;19.12;49.56;102514.81;5110154;28;20027;-82
2023/06/01 08:52:48;;;;;;;0.10;0.10;;;;;;;19.14;49.87;102521.03;5097892;28;20028;-82
2023/06/01 08:55:15;;;;;;;0.20;0.20;;;;;;;19.24;49.77;102505.53;5097206;28;20024;-82
2023/06/01 08:57:42;;;;;;;0.10;0.10;;;;;;;19.27;49.99;102513.47;5096407;28;20511;-81
2023/06/01 09:00:11;;;;;;;0.10;0.10;;;;;;;19.34;49.56;102504.31;5096244;28;20115;-82
2023/06/01 09:02:42;;;;;;;0.10;0.10;;;;;;;19.49;49.85;102502.97;5094538;28;20094;-81
2023/06/01 09:05:09;;;;;;;2.75;0.55;;;;;;;19.60;49.76;102499.94;5096318;28;20417;-81
2023/06/01 09:07:35;;;;;;;0.10;0.10;;;;;;;19.70;49.50;102505.88;5097154;28;20042;-81
2023/06/01 09:10:01;;;;;;;0.10;0.10;;;;;;;19.60;48.72;102494.56;5104535;28;20029;-81
2023/06/01 09:12:29;;;;;;;0.20;0.20;;;;;;;19.58;48.30;102496.41;5107257;28;20075;-80
2023/06/01 09:15:17;;;;;;;0.10;0.10;;;;;;;19.59;48.64;102482.03;5129911;28;20118;-79
2023/06/01 09:17:46;;;;;;;0.10;0.10;;;;;;;19.51;48.88;102498.41;5109333;28;20659;-81
2023/06/01 09:20:14;;;;;;;0.10;0.10;;;;;;;19.42;49.19;102493.31;5102777;28;20091;-81
2023/06/01 09:25:26;;;;;;;0.10;0.10;;;;;;;19.16;48.00;102489.59;5121154;27;20117;-78
2023/06/01 09:27:54;;;;;;;0.52;0.52;;;;;;;19.12;49.17;102492.44;5100476;28;20047;-78
2023/06/01 09:30:23;;;;;;;1.02;1.02;;;;;;;19.07;48.96;102488.06;5101619;28;20048;-78
2023/06/01 09:32:52;;;;;;;0.40;0.40;;;;;;;19.09;49.15;102488.06;5098985;28;20433;-76
2023/06/01 09:35:41;;;;;;;0.47;0.47;;;;;;;19.07;49.28;102477.34;5098781;28;20043;-78
2023/06/01 09:38:08;;;;;;;0.13;0.13;;;;;;;18.92;48.65;102486.72;5092232;28;20055;-76
2023/06/01 09:40:35;;;;;;;0.30;0.30;;;;;;;18.88;48.86;102489.53;5090359;28;20095;-78
2023/06/01 09:43:02;;;;;;;0.15;0.15;;;;;;;18.84;48.74;102485.16;5099706;28;20132;-78
2023/06/01 09:45:29;;;;;;;0.10;0.10;;;;;;;19.02;49.69;102479.28;5099866;28;20077;-79
2023/06/01 09:48:17;;;;;;;0.30;0.30;;;;;;;19.24;49.34;102475.97;5104728;28;20028;-79
2023/06/01 09:50:43;;;;;;;1.00;0.75;;;;;;;19.28;49.47;102476.72;5103835;28;20024;-79
2023/06/01 09:53:09;;;;;;;0.20;0.20;;;;;;;19.26;47.69;102478.59;5107757;28;20038;-77
2023/06/01 09:55:35;;;;;;;0.80;0.68;;;;;;;19.26;48.75;102471.41;5107199;28;20032;-77
2023/06/01 09:58:19;;;;;;;0.45;0.45;;;;;;;19.43;50.15;102478.06;5106210;28;20043;-78
2023/06/01 10:00:47;;;;;;;0.95;0.95;;;;;;;19.51;48.93;102481.41;5106237;28;20032;-77
2023/06/01 10:03:15;;;;;;;0.60;0.60;;;;;;;19.49;47.57;102480.56;5110625;28;20032;-78
2023/06/01 10:05:44;;;;;;;0.35;0.32;;;;;;;19.59;47.91;102471.28;5108291;28;20016;-79
2023/06/01 10:08:12;;;;;;;0.95;0.95;;;;;;;19.73;48.10;102474.41;5108303;28;20028;-77
2023/06/01 10:10:39;;;;;;;0.10;0.10;;;;;;;19.98;48.95;102462.84;5107020;28;20015;-77
2023/06/01 10:13:06;;;;;;;0.10;0.10;;;;;;;20.17;47.80;102467.59;5107499;28;20305;-80
2023/06/01 10:15:33;;;;;;;0.10;0.10;;;;;;;20.28;47.62;102464.56;5104751;28;20008;-77
2023/06/01 10:18:00;;;;;;;0.30;0.30;;;;;;;20.32;46.86;102458.97;5105422;28;20032;-78
2023/06/01 10:20:26;;;;;;;0.30;0.30;;;;;;;20.33;46.96;102459.88;5104093;28;20020;-78
2023/06/01 10:22:53;;;;;;;0.10;0.10;;;;;;;20.42;47.06;102461.38;5104115;28;20044;-77
2023/06/01 10:25:23;;;;;;;0.10;0.10;;;;;;;20.52;47.25;102454.69;5106223;28;20072;-80
2023/06/01 10:28:02;;;;;;;0.20;0.20;;;;;;;20.63;46.60;102457.00;5102819;28;20043;-78
2023/06/01 10:30:28;;;;;;;0.30;0.30;;;;;;;20.62;46.70;102466.91;5103777;28;20020;-80
2023/06/01 10:32:54;;;;;;;0.10;0.10;;;;;;;20.52;46.54;102463.69;5105118;28;20039;-78
2023/06/01 10:41:26;;;;;;;0.10;0.10;;;;;;;20.68;46.41;102457.72;5127774;27;20392;-78
2023/06/01 10:43:52;;;;;;;0.20;0.20;;;;;;;20.62;46.06;102457.94;5110512;28;20031;-81
2023/06/01 10:46:35;;;;;;;0.95;0.95;;;;;;;20.85;46.15;102459.81;5110012;28;20025;-77
2023/06/01 10:49:02;;;;;;;0.10;0.10;;;;;;;21.07;46.25;102448.22;5092996;28;20024;-78
2023/06/01 10:51:29;;;;;;;0.50;0.50;;;;;;;21.17;46.04;102455.88;5093577;28;20024;-77
2023/06/01 10:54:15;;;;;;;0.10;0.10;;;;;;;21.16;45.05;102453.25;5095259;28;20135;-78
2023/06/01 10:56:41;;;;;;;0.10;0.10;;;;;;;21.16;45.67;102447.88;5110196;28;20051;-76
2023/06/01 11:01:45;;;;;;;0.15;0.15;;;;;;;21.21;44.43;102450.38;5128999;27;20129;-77
2023/06/01 11:04:13;;;;;;;0.32;0.32;;;;;;;21.24;44.85;102445.72;5124679;28;20039;-78
2023/06/01 11:06:42;;;;;;;0.20;0.20;;;;;;;21.28;45.05;102444.69;5116519;28;20032;-78
2023/06/01 11:09:10;;;;;;;0.10;0.10;;;;;;;21.35;44.48;102437.22;5113533;27;20019;-79
2023/06/01 11:14:30;;;;;;;1.65;1.55;;;;;;;21.57;44.94;102426.47;5116568;27;20703;-82
2023/06/01 11:17:32;;;;;;;0.50;0.50;;;;;;;21.68;44.22;102438.63;5116092;28;20057;-82
2023/06/01 11:20:04;;;;;;;7.13;1.60;;;;;;;21.73;44.59;102428.53;5116863;28;20672;-82
2023/06/01 11:22:36;;;;;;;0.20;0.20;;;;;;;21.80;44.75;102430.91;5112262;28;20043;-82
2023/06/01 11:25:07;;;;;;;0.57;0.52;;;;;;;21.86;44.45;102432.47;5117205;28;20521;-82
2023/06/01 11:27:35;;;;;;;1.25;0.50;;;;;;;21.89;44.43;102437.72;5113317;28;20031;-82
2023/06/01 11:30:02;;;;;;;0.10;0.10;;;;;;;21.77;41.66;102435.53;5113860;28;20089;-82
2023/06/01 11:32:31;;;;;;;0.10;0.10;;;;;;;21.87;43.46;102428.84;5106549;28;20028;-81
2023/06/01 11:34:59;;;;;;;1.15;1.10;;;;;;;21.94;43.68;102430.34;5107158;28;20029;-82
2023/06/01 11:37:28;;;;;;;0.20;0.20;;;;;;;21.94;42.98;102433.03;5104604;28;20020;-82
2023/06/01 11:40:07;;;;;;;0.52;0.52;;;;;;;22.06;43.61;102423.50;5115597;28;20100;-84
2023/06/01 11:42:36;;;;;;;1.80;1.33;;;;;;;22.06;43.44;102425.34;5112436;28;20028;-82
2023/06/01 11:45:04;;;;;;;0.40;0.40;;;;;;;22.14;43.62;102420.47;5102680;28;20063;-83
2023/06/01 11:47:31;;;;;;;0.20;0.20;;;;;;;22.23;42.88;102420.09;5111818;28;20035;-82
2023/06/01 11:49:58;;;;;;;0.10;0.10;;;;;;;22.20;42.49;102414.81;5109940;28;20044;-84